sensor_id;sensor_type;location;lat;lon;timestamp;temperature;humidity
13482;DHT22;6813;60.352;15.746;2023-04-28T00:01:09;4.80;99.90
13482;DHT22;6813;60.352;15.746;2023-04-28T00:03:35;4.90;99.90
13482;DHT22;6813;60.352;15.746;2023-04-28T00:06:01;4.90;99.90
13482;DHT22;6813;60.352;15.746;2023-04-28T00:08:28;5.00;99.90
13482;DHT22;6813;60.352;15.746;2023-04-28T00:10:54;5.00;99.90
13482;DHT22;6813;60.352;15.746;2023-04-28T00:13:19;5.00;99.90
13482;DHT22;6813;60.352;15.746;2023-04-28T00:15:45;5.00;99.90
13482;DHT22;6813;60.352;15.746;2023-04-28T00:18:11;5.10;99.90
13482;DHT22;6813;60.352;15.746;2023-04-28T00:20:36;5.00;99.90
13482;DHT22;6813;60.352;15.746;2023-04-28T00:23:03;5.10;99.90
13482;DHT22;6813;60.352;15.746;2023-04-28T00:25:28;5.20;99.90
13482;DHT22;6813;60.352;15.746;2023-04-28T00:27:54;5.20;99.90
13482;DHT22;6813;60.352;15.746;2023-04-28T00:30:20;5.20;99.90
13482;DHT22;6813;60.352;15.746;2023-04-28T00:32:45;5.20;99.90
13482;DHT22;6813;60.352;15.746;2023-04-28T00:35:11;5.00;99.90
13482;DHT22;6813;60.352;15.746;2023-04-28T00:37:37;5.00;99.90
13482;DHT22;6813;60.352;15.746;2023-04-28T00:40:04;4.90;99.90
13482;DHT22;6813;60.352;15.746;2023-04-28T00:42:29;4.90;99.90
13482;DHT22;6813;60.352;15.746;2023-04-28T00:44:56;4.80;99.90
13482;DHT22;6813;60.352;15.746;2023-04-28T00:47:22;4.60;99.90
13482;DHT22;6813;60.352;15.746;2023-04-28T00:49:48;4.20;99.90
13482;DHT22;6813;60.352;15.746;2023-04-28T00:52:14;4.10;99.90
13482;DHT22;6813;60.352;15.746;2023-04-28T00:54:40;4.20;99.90
13482;DHT22;6813;60.352;15.746;2023-04-28T00:57:09;4.30;99.90
13482;DHT22;6813;60.352;15.746;2023-04-28T00:59:35;4.40;99.90
13482;DHT22;6813;60.352;15.746;2023-04-28T01:02:01;4.30;99.90
13482;DHT22;6813;60.352;15.746;2023-04-28T01:04:28;4.40;99.90
13482;DHT22;6813;60.352;15.746;2023-04-28T01:06:55;4.40;99.90
13482;DHT22;6813;60.352;15.746;2023-04-28T01:09:21;4.40;99.90
13482;DHT22;6813;60.352;15.746;2023-04-28T01:11:46;4.40;99.90
13482;DHT22;6813;60.352;15.746;2023-04-28T01:14:12;4.50;99.90
13482;DHT22;6813;60.352;15.746;2023-04-28T01:16:38;4.50;99.90
13482;DHT22;6813;60.352;15.746;2023-04-28T01:19:12;4.50;99.90
13482;DHT22;6813;60.352;15.746;2023-04-28T01:21:41;4.50;99.90
13482;DHT22;6813;60.352;15.746;2023-04-28T01:24:07;4.50;99.90
13482;DHT22;6813;60.352;15.746;2023-04-28T01:26:32;4.50;99.90
13482;DHT22;6813;60.352;15.746;2023-04-28T01:28:58;4.50;99.90
13482;DHT22;6813;60.352;15.746;2023-04-28T01:31:24;4.50;99.90
13482;DHT22;6813;60.352;15.746;2023-04-28T01:33:50;4.50;99.90
13482;DHT22;6813;60.352;15.746;2023-04-28T01:36:16;4.50;99.90
13482;DHT22;6813;60.352;15.746;2023-04-28T01:38:41;4.40;99.90
13482;DHT22;6813;60.352;15.746;2023-04-28T01:41:07;4.50;99.90
13482;DHT22;6813;60.352;15.746;2023-04-28T01:43:32;4.50;99.90
13482;DHT22;6813;60.352;15.746;2023-04-28T01:45:58;4.50;99.90
13482;DHT22;6813;60.352;15.746;2023-04-28T01:48:24;4.30;99.90
13482;DHT22;6813;60.352;15.746;2023-04-28T01:50:50;4.30;99.90
13482;DHT22;6813;60.352;15.746;2023-04-28T01:53:15;4.30;99.90
13482;DHT22;6813;60.352;15.746;2023-04-28T01:55:45;4.20;99.90
13482;DHT22;6813;60.352;15.746;2023-04-28T01:58:11;4.10;99.90
13482;DHT22;6813;60.352;15.746;2023-04-28T02:00:37;3.90;99.90
13482;DHT22;6813;60.352;15.746;2023-04-28T02:03:02;3.70;99.90
13482;DHT22;6813;60.352;15.746;2023-04-28T02:05:28;3.70;99.90
13482;DHT22;6813;60.352;15.746;2023-04-28T02:07:54;3.80;99.90
13482;DHT22;6813;60.352;15.746;2023-04-28T02:10:20;3.70;99.90
13482;DHT22;6813;60.352;15.746;2023-04-28T02:12:46;3.70;99.90
13482;DHT22;6813;60.352;15.746;2023-04-28T02:15:11;3.90;99.90
13482;DHT22;6813;60.352;15.746;2023-04-28T02:17:37;4.00;99.90
13482;DHT22;6813;60.352;15.746;2023-04-28T02:20:03;4.10;99.90
13482;DHT22;6813;60.352;15.746;2023-04-28T02:22:29;4.10;99.90
13482;DHT22;6813;60.352;15.746;2023-04-28T02:24:55;4.20;99.90
13482;DHT22;6813;60.352;15.746;2023-04-28T02:27:21;4.20;99.90
13482;DHT22;6813;60.352;15.746;2023-04-28T02:29:47;4.10;99.90
13482;DHT22;6813;60.352;15.746;2023-04-28T02:32:13;4.10;99.90
13482;DHT22;6813;60.352;15.746;2023-04-28T02:34:39;4.10;99.90
13482;DHT22;6813;60.352;15.746;2023-04-28T02:37:04;4.10;99.90
13482;DHT22;6813;60.352;15.746;2023-04-28T02:39:30;4.10;99.90
13482;DHT22;6813;60.352;15.746;2023-04-28T02:41:57;4.10;99.90
13482;DHT22;6813;60.352;15.746;2023-04-28T02:44:23;4.20;99.90
13482;DHT22;6813;60.352;15.746;2023-04-28T02:46:49;4.20;99.90
13482;DHT22;6813;60.352;15.746;2023-04-28T02:49:15;4.10;99.90
13482;DHT22;6813;60.352;15.746;2023-04-28T02:51:40;4.00;99.90
13482;DHT22;6813;60.352;15.746;2023-04-28T02:54:06;4.10;99.90
13482;DHT22;6813;60.352;15.746;2023-04-28T02:56:33;4.00;99.90
13482;DHT22;6813;60.352;15.746;2023-04-28T02:58:59;3.90;99.90
13482;DHT22;6813;60.352;15.746;2023-04-28T03:01:25;3.90;99.90
13482;DHT22;6813;60.352;15.746;2023-04-28T03:03:51;3.80;99.90
13482;DHT22;6813;60.352;15.746;2023-04-28T03:06:16;3.70;99.90
13482;DHT22;6813;60.352;15.746;2023-04-28T03:08:42;3.60;99.90
13482;DHT22;6813;60.352;15.746;2023-04-28T03:11:08;3.50;99.90
13482;DHT22;6813;60.352;15.746;2023-04-28T03:13:33;3.60;99.90
13482;DHT22;6813;60.352;15.746;2023-04-28T03:16:00;3.70;99.90
13482;DHT22;6813;60.352;15.746;2023-04-28T03:18:26;3.70;99.90
13482;DHT22;6813;60.352;15.746;2023-04-28T03:20:52;3.80;99.90
13482;DHT22;6813;60.352;15.746;2023-04-28T03:23:17;3.70;99.90
13482;DHT22;6813;60.352;15.746;2023-04-28T03:25:43;3.50;99.90
13482;DHT22;6813;60.352;15.746;2023-04-28T03:28:09;3.50;99.90
13482;DHT22;6813;60.352;15.746;2023-04-28T03:30:35;3.50;99.90
13482;DHT22;6813;60.352;15.746;2023-04-28T03:33:01;3.50;99.90
13482;DHT22;6813;60.352;15.746;2023-04-28T03:35:26;3.70;99.90
13482;DHT22;6813;60.352;15.746;2023-04-28T03:37:52;3.50;99.90
13482;DHT22;6813;60.352;15.746;2023-04-28T03:40:18;3.40;99.90
13482;DHT22;6813;60.352;15.746;2023-04-28T03:42:44;3.40;99.90
13482;DHT22;6813;60.352;15.746;2023-04-28T03:45:10;3.50;99.90
13482;DHT22;6813;60.352;15.746;2023-04-28T03:47:35;3.40;99.90
13482;DHT22;6813;60.352;15.746;2023-04-28T03:50:01;3.40;99.90
13482;DHT22;6813;60.352;15.746;2023-04-28T03:52:27;3.40;99.90
13482;DHT22;6813;60.352;15.746;2023-04-28T03:54:53;3.40;99.90
13482;DHT22;6813;60.352;15.746;2023-04-28T03:57:18;3.50;99.90
13482;DHT22;6813;60.352;15.746;2023-04-28T03:59:44;3.70;99.90
13482;DHT22;6813;60.352;15.746;2023-04-28T04:02:10;3.80;99.90
13482;DHT22;6813;60.352;15.746;2023-04-28T04:04:35;3.80;99.90
13482;DHT22;6813;60.352;15.746;2023-04-28T04:07:01;3.80;99.90
13482;DHT22;6813;60.352;15.746;2023-04-28T04:09:27;3.80;99.90
13482;DHT22;6813;60.352;15.746;2023-04-28T04:11:53;3.90;99.90
13482;DHT22;6813;60.352;15.746;2023-04-28T04:14:18;4.00;99.90
13482;DHT22;6813;60.352;15.746;2023-04-28T04:16:45;3.90;99.90
13482;DHT22;6813;60.352;15.746;2023-04-28T04:19:12;4.00;99.90
13482;DHT22;6813;60.352;15.746;2023-04-28T04:21:38;4.10;99.90
13482;DHT22;6813;60.352;15.746;2023-04-28T04:24:45;4.20;99.90
13482;DHT22;6813;60.352;15.746;2023-04-28T04:27:11;4.20;99.90
13482;DHT22;6813;60.352;15.746;2023-04-28T04:29:37;4.20;99.90
13482;DHT22;6813;60.352;15.746;2023-04-28T04:32:02;4.30;99.90
13482;DHT22;6813;60.352;15.746;2023-04-28T04:34:28;4.40;99.90
13482;DHT22;6813;60.352;15.746;2023-04-28T04:36:54;4.40;99.90
13482;DHT22;6813;60.352;15.746;2023-04-28T04:39:20;4.60;99.90
13482;DHT22;6813;60.352;15.746;2023-04-28T04:41:45;4.60;99.90
13482;DHT22;6813;60.352;15.746;2023-04-28T04:44:11;4.50;99.90
13482;DHT22;6813;60.352;15.746;2023-04-28T04:46:37;4.40;99.90
13482;DHT22;6813;60.352;15.746;2023-04-28T04:49:03;4.50;99.90
13482;DHT22;6813;60.352;15.746;2023-04-28T04:51:29;4.70;99.90
13482;DHT22;6813;60.352;15.746;2023-04-28T04:53:54;4.70;99.90
13482;DHT22;6813;60.352;15.746;2023-04-28T04:56:20;4.70;99.90
13482;DHT22;6813;60.352;15.746;2023-04-28T04:58:47;4.80;99.90
13482;DHT22;6813;60.352;15.746;2023-04-28T05:01:13;4.90;99.90
13482;DHT22;6813;60.352;15.746;2023-04-28T05:03:38;5.00;99.90
13482;DHT22;6813;60.352;15.746;2023-04-28T05:06:04;4.70;99.90
13482;DHT22;6813;60.352;15.746;2023-04-28T05:08:30;4.70;99.90
13482;DHT22;6813;60.352;15.746;2023-04-28T05:10:56;4.60;99.90
13482;DHT22;6813;60.352;15.746;2023-04-28T05:13:22;4.60;99.90
13482;DHT22;6813;60.352;15.746;2023-04-28T05:15:49;4.70;99.90
13482;DHT22;6813;60.352;15.746;2023-04-28T05:18:14;4.70;99.90
13482;DHT22;6813;60.352;15.746;2023-04-28T05:20:40;4.90;99.90
13482;DHT22;6813;60.352;15.746;2023-04-28T05:23:06;5.00;99.90
13482;DHT22;6813;60.352;15.746;2023-04-28T05:25:32;4.90;99.90
13482;DHT22;6813;60.352;15.746;2023-04-28T05:27:58;5.00;99.90
13482;DHT22;6813;60.352;15.746;2023-04-28T05:30:27;5.00;99.90
13482;DHT22;6813;60.352;15.746;2023-04-28T05:32:53;5.00;99.90
13482;DHT22;6813;60.352;15.746;2023-04-28T05:35:18;5.20;99.90
13482;DHT22;6813;60.352;15.746;2023-04-28T05:37:44;5.40;99.90
13482;DHT22;6813;60.352;15.746;2023-04-28T05:40:10;5.50;99.90
13482;DHT22;6813;60.352;15.746;2023-04-28T05:42:36;5.40;99.90
13482;DHT22;6813;60.352;15.746;2023-04-28T05:45:02;5.60;99.90
13482;DHT22;6813;60.352;15.746;2023-04-28T05:47:28;5.90;99.90
13482;DHT22;6813;60.352;15.746;2023-04-28T05:49:55;6.10;99.90
13482;DHT22;6813;60.352;15.746;2023-04-28T05:52:21;6.10;99.90
13482;DHT22;6813;60.352;15.746;2023-04-28T05:54:46;6.30;99.90
13482;DHT22;6813;60.352;15.746;2023-04-28T05:57:13;6.40;99.90
13482;DHT22;6813;60.352;15.746;2023-04-28T05:59:39;6.40;99.90
13482;DHT22;6813;60.352;15.746;2023-04-28T06:02:04;6.50;99.90
13482;DHT22;6813;60.352;15.746;2023-04-28T06:04:30;6.40;99.90
13482;DHT22;6813;60.352;15.746;2023-04-28T06:06:56;6.50;99.90
13482;DHT22;6813;60.352;15.746;2023-04-28T06:09:22;6.60;99.90
13482;DHT22;6813;60.352;15.746;2023-04-28T06:11:47;6.70;99.90
13482;DHT22;6813;60.352;15.746;2023-04-28T06:14:13;6.80;99.90
13482;DHT22;6813;60.352;15.746;2023-04-28T06:16:39;6.90;99.90
13482;DHT22;6813;60.352;15.746;2023-04-28T06:19:05;7.00;99.90
13482;DHT22;6813;60.352;15.746;2023-04-28T06:21:30;7.10;99.90
13482;DHT22;6813;60.352;15.746;2023-04-28T06:23:56;7.10;99.90
13482;DHT22;6813;60.352;15.746;2023-04-28T06:26:23;7.10;99.90
13482;DHT22;6813;60.352;15.746;2023-04-28T06:28:49;7.20;99.90
13482;DHT22;6813;60.352;15.746;2023-04-28T06:31:15;7.30;99.90
13482;DHT22;6813;60.352;15.746;2023-04-28T06:33:41;7.30;99.90
13482;DHT22;6813;60.352;15.746;2023-04-28T06:36:07;7.40;99.90
13482;DHT22;6813;60.352;15.746;2023-04-28T06:38:33;7.30;99.90
13482;DHT22;6813;60.352;15.746;2023-04-28T06:40:58;7.30;99.90
13482;DHT22;6813;60.352;15.746;2023-04-28T06:43:24;7.30;99.90
13482;DHT22;6813;60.352;15.746;2023-04-28T06:45:51;7.30;99.90
13482;DHT22;6813;60.352;15.746;2023-04-28T06:48:16;7.30;99.90
13482;DHT22;6813;60.352;15.746;2023-04-28T06:50:42;7.30;99.90
13482;DHT22;6813;60.352;15.746;2023-04-28T06:53:08;7.40;99.90
13482;DHT22;6813;60.352;15.746;2023-04-28T06:55:34;7.50;99.90
13482;DHT22;6813;60.352;15.746;2023-04-28T06:58:00;7.50;99.90
13482;DHT22;6813;60.352;15.746;2023-04-28T07:00:25;7.50;99.90
13482;DHT22;6813;60.352;15.746;2023-04-28T07:02:51;7.60;99.90
13482;DHT22;6813;60.352;15.746;2023-04-28T07:05:17;7.60;99.90
13482;DHT22;6813;60.352;15.746;2023-04-28T07:07:43;7.70;99.90
13482;DHT22;6813;60.352;15.746;2023-04-28T07:10:09;7.80;99.90
13482;DHT22;6813;60.352;15.746;2023-04-28T07:12:35;7.90;99.90
13482;DHT22;6813;60.352;15.746;2023-04-28T07:15:01;8.10;99.90
13482;DHT22;6813;60.352;15.746;2023-04-28T07:17:27;8.40;99.90
13482;DHT22;6813;60.352;15.746;2023-04-28T07:19:52;8.40;99.90
13482;DHT22;6813;60.352;15.746;2023-04-28T07:22:18;8.70;99.90
13482;DHT22;6813;60.352;15.746;2023-04-28T07:24:44;8.90;99.90
13482;DHT22;6813;60.352;15.746;2023-04-28T07:27:10;9.00;99.90
13482;DHT22;6813;60.352;15.746;2023-04-28T07:29:35;9.30;99.90
13482;DHT22;6813;60.352;15.746;2023-04-28T07:32:01;9.80;99.90
13482;DHT22;6813;60.352;15.746;2023-04-28T07:34:33;10.20;99.90
13482;DHT22;6813;60.352;15.746;2023-04-28T07:36:59;10.60;99.90
13482;DHT22;6813;60.352;15.746;2023-04-28T07:39:25;11.00;99.90
13482;DHT22;6813;60.352;15.746;2023-04-28T07:41:51;11.20;99.90
13482;DHT22;6813;60.352;15.746;2023-04-28T07:44:17;11.10;99.90
13482;DHT22;6813;60.352;15.746;2023-04-28T07:46:43;11.20;99.90
13482;DHT22;6813;60.352;15.746;2023-04-28T07:49:09;11.10;99.90
13482;DHT22;6813;60.352;15.746;2023-04-28T07:51:35;11.00;99.90
13482;DHT22;6813;60.352;15.746;2023-04-28T07:54:00;10.80;99.80
13482;DHT22;6813;60.352;15.746;2023-04-28T07:56:26;10.70;99.80
13482;DHT22;6813;60.352;15.746;2023-04-28T07:58:52;10.90;99.70
13482;DHT22;6813;60.352;15.746;2023-04-28T08:01:18;11.00;99.40
13482;DHT22;6813;60.352;15.746;2023-04-28T08:03:44;10.90;98.90
13482;DHT22;6813;60.352;15.746;2023-04-28T08:06:10;10.80;98.30
13482;DHT22;6813;60.352;15.746;2023-04-28T08:08:36;10.80;98.70
13482;DHT22;6813;60.352;15.746;2023-04-28T08:11:03;10.70;98.80
13482;DHT22;6813;60.352;15.746;2023-04-28T08:13:29;10.50;99.10
13482;DHT22;6813;60.352;15.746;2023-04-28T08:15:55;10.50;99.40
13482;DHT22;6813;60.352;15.746;2023-04-28T08:18:22;10.50;99.40
13482;DHT22;6813;60.352;15.746;2023-04-28T08:20:47;10.60;99.00
13482;DHT22;6813;60.352;15.746;2023-04-28T08:23:13;10.50;99.40
13482;DHT22;6813;60.352;15.746;2023-04-28T08:25:39;10.40;99.60
13482;DHT22;6813;60.352;15.746;2023-04-28T08:28:04;10.40;99.70
13482;DHT22;6813;60.352;15.746;2023-04-28T08:30:33;10.30;99.00
13482;DHT22;6813;60.352;15.746;2023-04-28T08:32:59;10.30;99.20
13482;DHT22;6813;60.352;15.746;2023-04-28T08:35:24;10.20;99.20
13482;DHT22;6813;60.352;15.746;2023-04-28T08:37:52;10.10;98.70
13482;DHT22;6813;60.352;15.746;2023-04-28T08:40:18;10.10;99.00
13482;DHT22;6813;60.352;15.746;2023-04-28T08:42:44;10.30;98.60
13482;DHT22;6813;60.352;15.746;2023-04-28T08:45:13;10.60;98.90
13482;DHT22;6813;60.352;15.746;2023-04-28T08:47:39;11.10;99.40
13482;DHT22;6813;60.352;15.746;2023-04-28T08:50:10;11.50;98.90
13482;DHT22;6813;60.352;15.746;2023-04-28T08:52:40;11.70;97.40
13482;DHT22;6813;60.352;15.746;2023-04-28T08:55:10;11.50;96.90
13482;DHT22;6813;60.352;15.746;2023-04-28T08:57:38;11.20;96.70
13482;DHT22;6813;60.352;15.746;2023-04-28T09:00:06;10.90;97.50
13482;DHT22;6813;60.352;15.746;2023-04-28T09:02:31;10.70;97.10
13482;DHT22;6813;60.352;15.746;2023-04-28T09:04:57;10.70;97.20
13482;DHT22;6813;60.352;15.746;2023-04-28T09:07:23;10.70;97.40
13482;DHT22;6813;60.352;15.746;2023-04-28T09:09:49;10.70;97.20
13482;DHT22;6813;60.352;15.746;2023-04-28T09:12:15;10.90;97.60
13482;DHT22;6813;60.352;15.746;2023-04-28T09:14:42;11.10;97.30
13482;DHT22;6813;60.352;15.746;2023-04-28T09:17:12;11.30;96.70
13482;DHT22;6813;60.352;15.746;2023-04-28T09:19:38;11.30;96.50
13482;DHT22;6813;60.352;15.746;2023-04-28T09:22:07;11.60;96.00
13482;DHT22;6813;60.352;15.746;2023-04-28T09:27:00;11.90;96.00
13482;DHT22;6813;60.352;15.746;2023-04-28T09:29:32;11.80;95.40
13482;DHT22;6813;60.352;15.746;2023-04-28T09:32:17;11.80;95.40
13482;DHT22;6813;60.352;15.746;2023-04-28T09:34:53;12.00;94.60
13482;DHT22;6813;60.352;15.746;2023-04-28T09:37:22;12.10;95.10
13482;DHT22;6813;60.352;15.746;2023-04-28T09:39:53;12.40;94.40
13482;DHT22;6813;60.352;15.746;2023-04-28T09:45:08;12.60;93.90
13482;DHT22;6813;60.352;15.746;2023-04-28T09:47:42;12.60;94.90
13482;DHT22;6813;60.352;15.746;2023-04-28T09:50:10;12.90;94.60
13482;DHT22;6813;60.352;15.746;2023-04-28T09:52:37;13.10;93.10
13482;DHT22;6813;60.352;15.746;2023-04-28T09:55:04;13.30;93.30
13482;DHT22;6813;60.352;15.746;2023-04-28T09:57:32;13.40;91.80
13482;DHT22;6813;60.352;15.746;2023-04-28T09:59:59;13.10;92.20
13482;DHT22;6813;60.352;15.746;2023-04-28T10:02:25;12.80;91.40
13482;DHT22;6813;60.352;15.746;2023-04-28T10:04:51;12.40;93.30
13482;DHT22;6813;60.352;15.746;2023-04-28T10:07:19;12.10;93.90
13482;DHT22;6813;60.352;15.746;2023-04-28T10:09:49;11.70;93.40
13482;DHT22;6813;60.352;15.746;2023-04-28T10:12:20;11.60;94.70
13482;DHT22;6813;60.352;15.746;2023-04-28T10:14:47;11.70;94.80
13482;DHT22;6813;60.352;15.746;2023-04-28T10:17:16;11.80;95.00
13482;DHT22;6813;60.352;15.746;2023-04-28T10:19:46;12.00;95.00
13482;DHT22;6813;60.352;15.746;2023-04-28T10:25:31;12.30;93.70
13482;DHT22;6813;60.352;15.746;2023-04-28T10:28:08;12.50;93.60
13482;DHT22;6813;60.352;15.746;2023-04-28T10:30:34;12.70;93.30
13482;DHT22;6813;60.352;15.746;2023-04-28T10:38:13;12.30;92.60
13482;DHT22;6813;60.352;15.746;2023-04-28T10:40:44;12.10;91.60
13482;DHT22;6813;60.352;15.746;2023-04-28T10:43:34;12.00;91.90
13482;DHT22;6813;60.352;15.746;2023-04-28T10:46:03;12.10;91.60
13482;DHT22;6813;60.352;15.746;2023-04-28T10:56:13;11.70;93.90
13482;DHT22;6813;60.352;15.746;2023-04-28T10:58:50;11.70;93.50
13482;DHT22;6813;60.352;15.746;2023-04-28T11:06:30;12.00;94.00
13482;DHT22;6813;60.352;15.746;2023-04-28T11:12:08;12.30;92.80
13482;DHT22;6813;60.352;15.746;2023-04-28T11:14:37;12.40;93.60
13482;DHT22;6813;60.352;15.746;2023-04-28T11:17:08;12.10;94.10
13482;DHT22;6813;60.352;15.746;2023-04-28T11:19:38;12.20;95.20
13482;DHT22;6813;60.352;15.746;2023-04-28T11:22:06;12.00;93.70
13482;DHT22;6813;60.352;15.746;2023-04-28T11:24:37;12.10;93.60
13482;DHT22;6813;60.352;15.746;2023-04-28T11:27:03;12.20;93.90
13482;DHT22;6813;60.352;15.746;2023-04-28T11:29:36;12.30;93.30
13482;DHT22;6813;60.352;15.746;2023-04-28T11:32:03;12.50;92.60
13482;DHT22;6813;60.352;15.746;2023-04-28T11:34:29;12.70;93.00
13482;DHT22;6813;60.352;15.746;2023-04-28T11:36:55;12.90;91.50
13482;DHT22;6813;60.352;15.746;2023-04-28T11:39:28;12.90;90.20
13482;DHT22;6813;60.352;15.746;2023-04-28T11:41:55;12.90;89.70
13482;DHT22;6813;60.352;15.746;2023-04-28T11:44:24;12.90;89.70
13482;DHT22;6813;60.352;15.746;2023-04-28T11:46:56;13.00;90.20
13482;DHT22;6813;60.352;15.746;2023-04-28T11:49:25;13.10;90.40
13482;DHT22;6813;60.352;15.746;2023-04-28T11:51:55;13.10;88.90
13482;DHT22;6813;60.352;15.746;2023-04-28T11:54:23;13.10;87.20
13482;DHT22;6813;60.352;15.746;2023-04-28T11:56:49;13.00;88.40
13482;DHT22;6813;60.352;15.746;2023-04-28T11:59:15;13.20;90.60
13482;DHT22;6813;60.352;15.746;2023-04-28T12:01:52;13.30;86.10
13482;DHT22;6813;60.352;15.746;2023-04-28T12:04:37;13.30;83.20
13482;DHT22;6813;60.352;15.746;2023-04-28T12:07:15;13.30;82.50
13482;DHT22;6813;60.352;15.746;2023-04-28T12:10:10;13.20;85.90
13482;DHT22;6813;60.352;15.746;2023-04-28T12:12:37;13.20;86.30
13482;DHT22;6813;60.352;15.746;2023-04-28T12:15:04;13.10;86.60
13482;DHT22;6813;60.352;15.746;2023-04-28T12:17:34;13.00;88.50
13482;DHT22;6813;60.352;15.746;2023-04-28T12:20:01;13.00;86.60
13482;DHT22;6813;60.352;15.746;2023-04-28T12:22:28;12.90;83.70
13482;DHT22;6813;60.352;15.746;2023-04-28T12:27:29;12.70;83.60
13482;DHT22;6813;60.352;15.746;2023-04-28T12:30:28;12.60;84.40
13482;DHT22;6813;60.352;15.746;2023-04-28T12:32:55;12.70;80.50
13482;DHT22;6813;60.352;15.746;2023-04-28T12:35:25;12.80;82.70
13482;DHT22;6813;60.352;15.746;2023-04-28T12:37:52;12.90;82.30
13482;DHT22;6813;60.352;15.746;2023-04-28T12:40:18;13.00;84.20
13482;DHT22;6813;60.352;15.746;2023-04-28T12:42:44;13.00;81.60
13482;DHT22;6813;60.352;15.746;2023-04-28T12:45:10;13.00;84.00
13482;DHT22;6813;60.352;15.746;2023-04-28T12:47:36;12.90;81.00
13482;DHT22;6813;60.352;15.746;2023-04-28T12:50:03;12.90;79.80
13482;DHT22;6813;60.352;15.746;2023-04-28T12:52:29;12.90;77.70
13482;DHT22;6813;60.352;15.746;2023-04-28T12:54:58;12.90;79.00
13482;DHT22;6813;60.352;15.746;2023-04-28T12:57:24;12.90;78.70
13482;DHT22;6813;60.352;15.746;2023-04-28T12:59:51;12.80;78.00
13482;DHT22;6813;60.352;15.746;2023-04-28T13:02:17;12.80;79.10
13482;DHT22;6813;60.352;15.746;2023-04-28T13:04:43;12.80;80.30
13482;DHT22;6813;60.352;15.746;2023-04-28T13:07:19;12.70;81.10
13482;DHT22;6813;60.352;15.746;2023-04-28T13:09:46;12.70;78.50
13482;DHT22;6813;60.352;15.746;2023-04-28T13:12:13;12.70;79.40
13482;DHT22;6813;60.352;15.746;2023-04-28T13:14:39;12.60;79.40
13482;DHT22;6813;60.352;15.746;2023-04-28T13:17:04;12.60;78.40
13482;DHT22;6813;60.352;15.746;2023-04-28T13:19:30;12.50;77.40
13482;DHT22;6813;60.352;15.746;2023-04-28T13:21:58;12.40;77.60
13482;DHT22;6813;60.352;15.746;2023-04-28T13:24:24;12.50;79.80
13482;DHT22;6813;60.352;15.746;2023-04-28T13:26:51;12.60;77.40
13482;DHT22;6813;60.352;15.746;2023-04-28T13:29:17;12.40;73.20
13482;DHT22;6813;60.352;15.746;2023-04-28T13:31:43;12.30;76.90
13482;DHT22;6813;60.352;15.746;2023-04-28T13:34:09;12.40;80.70
13482;DHT22;6813;60.352;15.746;2023-04-28T13:36:40;12.50;78.30
13482;DHT22;6813;60.352;15.746;2023-04-28T13:39:06;12.40;77.60
13482;DHT22;6813;60.352;15.746;2023-04-28T13:41:36;12.10;75.30
13482;DHT22;6813;60.352;15.746;2023-04-28T13:44:01;12.20;77.80
13482;DHT22;6813;60.352;15.746;2023-04-28T13:46:27;12.30;77.50
13482;DHT22;6813;60.352;15.746;2023-04-28T13:48:53;12.20;79.50
13482;DHT22;6813;60.352;15.746;2023-04-28T13:51:19;12.30;81.40
13482;DHT22;6813;60.352;15.746;2023-04-28T13:53:45;12.30;77.30
13482;DHT22;6813;60.352;15.746;2023-04-28T13:56:11;12.30;81.20
13482;DHT22;6813;60.352;15.746;2023-04-28T13:58:37;12.40;79.30
13482;DHT22;6813;60.352;15.746;2023-04-28T14:01:02;12.60;79.70
13482;DHT22;6813;60.352;15.746;2023-04-28T14:03:29;12.60;75.10
13482;DHT22;6813;60.352;15.746;2023-04-28T14:05:55;12.50;72.90
13482;DHT22;6813;60.352;15.746;2023-04-28T14:08:22;12.50;74.10
13482;DHT22;6813;60.352;15.746;2023-04-28T14:10:49;12.50;73.00
13482;DHT22;6813;60.352;15.746;2023-04-28T14:13:15;12.50;72.40
13482;DHT22;6813;60.352;15.746;2023-04-28T14:15:42;12.30;69.50
13482;DHT22;6813;60.352;15.746;2023-04-28T14:18:07;12.20;73.20
13482;DHT22;6813;60.352;15.746;2023-04-28T14:20:34;12.20;77.50
13482;DHT22;6813;60.352;15.746;2023-04-28T14:23:00;12.20;78.00
13482;DHT22;6813;60.352;15.746;2023-04-28T14:25:51;12.10;72.30
13482;DHT22;6813;60.352;15.746;2023-04-28T14:28:19;12.10;75.30
13482;DHT22;6813;60.352;15.746;2023-04-28T14:30:46;11.90;77.60
13482;DHT22;6813;60.352;15.746;2023-04-28T14:33:11;11.90;77.60
13482;DHT22;6813;60.352;15.746;2023-04-28T14:35:37;11.90;72.70
13482;DHT22;6813;60.352;15.746;2023-04-28T14:38:04;11.80;73.30
13482;DHT22;6813;60.352;15.746;2023-04-28T14:40:30;11.70;69.80
13482;DHT22;6813;60.352;15.746;2023-04-28T14:42:56;11.70;76.40
13482;DHT22;6813;60.352;15.746;2023-04-28T14:45:22;11.90;77.30
13482;DHT22;6813;60.352;15.746;2023-04-28T14:47:48;12.10;71.10
13482;DHT22;6813;60.352;15.746;2023-04-28T14:50:14;12.10;70.60
13482;DHT22;6813;60.352;15.746;2023-04-28T14:52:40;12.20;68.80
13482;DHT22;6813;60.352;15.746;2023-04-28T14:55:07;12.10;71.60
13482;DHT22;6813;60.352;15.746;2023-04-28T14:57:33;12.20;71.20
13482;DHT22;6813;60.352;15.746;2023-04-28T14:59:59;12.20;71.80
13482;DHT22;6813;60.352;15.746;2023-04-28T15:02:25;12.30;76.20
13482;DHT22;6813;60.352;15.746;2023-04-28T15:04:54;12.30;77.50
13482;DHT22;6813;60.352;15.746;2023-04-28T15:07:21;12.30;71.10
13482;DHT22;6813;60.352;15.746;2023-04-28T15:09:47;12.30;67.90
13482;DHT22;6813;60.352;15.746;2023-04-28T15:12:13;12.20;70.60
13482;DHT22;6813;60.352;15.746;2023-04-28T15:14:38;12.00;67.20
13482;DHT22;6813;60.352;15.746;2023-04-28T15:17:04;11.80;74.20
13482;DHT22;6813;60.352;15.746;2023-04-28T15:19:30;11.90;67.10
13482;DHT22;6813;60.352;15.746;2023-04-28T15:21:56;11.80;67.80
13482;DHT22;6813;60.352;15.746;2023-04-28T15:24:22;11.80;73.40
13482;DHT22;6813;60.352;15.746;2023-04-28T15:26:48;11.90;69.90
13482;DHT22;6813;60.352;15.746;2023-04-28T15:29:14;12.10;68.40
13482;DHT22;6813;60.352;15.746;2023-04-28T15:31:40;12.20;71.30
13482;DHT22;6813;60.352;15.746;2023-04-28T15:34:06;12.20;70.80
13482;DHT22;6813;60.352;15.746;2023-04-28T15:36:38;12.30;70.70
13482;DHT22;6813;60.352;15.746;2023-04-28T15:39:05;12.30;69.10
13482;DHT22;6813;60.352;15.746;2023-04-28T15:41:32;12.30;68.30
13482;DHT22;6813;60.352;15.746;2023-04-28T15:43:58;12.20;70.70
13482;DHT22;6813;60.352;15.746;2023-04-28T15:46:26;12.10;66.40
13482;DHT22;6813;60.352;15.746;2023-04-28T15:48:52;11.90;67.90
13482;DHT22;6813;60.352;15.746;2023-04-28T15:51:19;12.00;69.30
13482;DHT22;6813;60.352;15.746;2023-04-28T15:53:46;12.10;74.10
13482;DHT22;6813;60.352;15.746;2023-04-28T15:56:17;12.20;69.50
13482;DHT22;6813;60.352;15.746;2023-04-28T15:58:43;12.00;67.10
13482;DHT22;6813;60.352;15.746;2023-04-28T16:01:09;12.10;65.20
13482;DHT22;6813;60.352;15.746;2023-04-28T16:03:36;12.10;67.30
13482;DHT22;6813;60.352;15.746;2023-04-28T16:06:02;12.10;67.90
13482;DHT22;6813;60.352;15.746;2023-04-28T16:08:31;11.90;71.40